Time;durP1;ratioP1;P1;durP2;ratioP2;P2;SDS_P1;SDS_P2;PMS_P1;PMS_P2;Temp;Humidity;BMP_temperature;BMP_pressure;BME280_temperature;BME280_humidity;BME280_pressure;Samples;Min_cycle;Max_cycle;Signal;HPM_P1;HPM_P2
2020/12/03 00:02:02;0.00;0.00;0.62;0.00;0.00;0.62;2.03;1.70;;;20.20;28.30;;;;;;2249761;61;20384;-60
2020/12/03 00:04:47;0.00;0.00;0.62;0.00;0.00;0.62;2.50;1.63;;;20.20;28.30;;;;;;2250482;61;20438;-61
2020/12/03 00:07:31;0.00;0.00;0.62;0.00;0.00;0.62;3.03;1.83;;;20.20;28.40;;;;;;2250401;61;20413;-60
2020/12/03 00:10:16;0.00;0.00;0.62;0.00;0.00;0.62;2.33;1.97;;;20.20;28.30;;;;;;2250137;61;20365;-60
2020/12/03 00:13:13;0.00;0.00;0.62;0.00;0.00;0.62;1.80;1.70;;;20.20;28.30;;;;;;2250249;61;20396;-60
2020/12/03 00:16:01;0.00;0.00;0.62;0.00;0.00;0.62;1.80;1.50;;;20.20;28.30;;;;;;2250025;61;20396;-60
2020/12/03 00:18:46;0.00;0.00;0.62;0.00;0.00;0.62;1.90;1.70;;;20.20;28.30;;;;;;2250330;61;20420;-60
2020/12/03 00:21:33;0.00;0.00;0.62;0.00;0.00;0.62;3.67;2.20;;;20.20;28.40;;;;;;2250557;61;20697;-60
2020/12/03 00:24:21;0.00;0.00;0.62;0.00;0.00;0.62;2.30;1.47;;;20.20;28.30;;;;;;2250089;61;20433;-60
2020/12/03 00:27:08;0.00;0.00;0.62;0.00;0.00;0.62;2.00;1.60;;;20.20;28.30;;;;;;2249867;61;20396;-60
2020/12/03 00:29:53;0.00;0.00;0.62;0.00;0.00;0.62;1.97;1.63;;;20.20;28.30;;;;;;2250237;61;20368;-60
2020/12/03 00:32:39;0.00;0.00;0.62;0.00;0.00;0.62;2.30;1.80;;;20.20;28.80;;;;;;2250316;61;20361;-58
2020/12/03 00:35:24;0.00;0.00;0.62;0.00;0.00;0.62;2.20;2.00;;;20.20;28.40;;;;;;2250175;61;20408;-61
2020/12/03 00:38:09;0.00;0.00;0.62;0.00;0.00;0.62;2.63;1.97;;;20.20;28.40;;;;;;2249969;61;20377;-61
2020/12/03 00:40:54;0.00;0.00;0.62;0.00;0.00;0.62;2.37;2.17;;;20.20;28.40;;;;;;2250220;61;20365;-61
2020/12/03 00:43:39;0.00;0.00;0.62;0.00;0.00;0.62;2.57;2.00;;;20.20;28.40;;;;;;2250251;61;20361;-61
2020/12/03 00:46:28;0.00;0.00;0.62;0.00;0.00;0.62;4.60;1.40;;;20.20;28.40;;;;;;2250143;61;20433;-60
2020/12/03 00:49:17;0.00;0.00;0.62;0.00;0.00;0.62;2.10;1.80;;;20.20;28.90;;;;;;2250238;61;20366;-61
2020/12/03 00:52:03;0.00;0.00;0.62;0.00;0.00;0.62;2.40;1.90;;;20.20;28.40;;;;;;2249865;61;20736;-61
2020/12/03 00:54:50;0.00;0.00;0.62;0.00;0.00;0.62;1.83;1.47;;;20.20;28.40;;;;;;2246918;61;20412;-60
2020/12/03 00:57:35;0.00;0.00;0.62;0.00;0.00;0.62;1.30;1.20;;;20.20;28.40;;;;;;2247152;61;20641;-60
2020/12/03 01:00:22;0.00;0.00;0.62;0.00;0.00;0.62;2.27;1.67;;;20.30;28.40;;;;;;2246797;61;20652;-61
2020/12/03 01:03:07;0.00;0.00;0.62;0.00;0.00;0.62;2.10;1.90;;;20.30;28.40;;;;;;2250079;61;20369;-60
2020/12/03 01:05:52;0.00;0.00;0.62;0.00;0.00;0.62;2.27;2.07;;;20.20;28.40;;;;;;2250336;61;20497;-61
2020/12/03 01:08:38;0.00;0.00;0.62;0.00;0.00;0.62;1.97;1.53;;;20.20;28.40;;;;;;2249909;61;20368;-61
2020/12/03 01:11:23;0.00;0.00;0.62;0.00;0.00;0.62;1.77;1.67;;;20.20;28.40;;;;;;2250185;61;20416;-60
2020/12/03 01:14:08;0.00;0.00;0.62;0.00;0.00;0.62;2.90;1.97;;;20.30;28.40;;;;;;2249841;61;20400;-61
2020/12/03 01:16:53;0.00;0.00;0.62;0.00;0.00;0.62;1.57;1.47;;;20.30;28.40;;;;;;2249864;61;20404;-60
2020/12/03 01:19:38;0.00;0.00;0.62;0.00;0.00;0.62;2.10;1.83;;;20.30;29.00;;;;;;2249997;61;20494;-61
2020/12/03 01:22:24;0.00;0.00;0.62;0.00;0.00;0.62;1.90;1.43;;;20.30;28.50;;;;;;2249800;61;20594;-61
2020/12/03 01:25:10;0.00;0.00;0.62;0.00;0.00;0.62;2.30;2.10;;;20.30;28.40;;;;;;2250145;61;20362;-61
2020/12/03 01:27:55;0.00;0.00;0.62;0.00;0.00;0.62;1.80;1.43;;;20.20;28.40;;;;;;2250203;61;20652;-61
2020/12/03 01:30:40;0.00;0.00;0.62;0.00;0.00;0.62;1.87;1.60;;;20.30;28.40;;;;;;2249793;61;20424;-61
2020/12/03 01:33:26;0.00;0.00;0.62;0.00;0.00;0.62;2.80;1.77;;;20.30;28.40;;;;;;2250081;61;20368;-61
2020/12/03 01:36:14;0.00;0.00;0.62;0.00;0.00;0.62;2.20;1.80;;;20.30;28.40;;;;;;2249984;61;20825;-61
2020/12/03 01:38:59;0.00;0.00;0.62;0.00;0.00;0.62;2.00;1.80;;;20.30;28.40;;;;;;2249915;61;20372;-61
2020/12/03 01:41:45;0.00;0.00;0.62;0.00;0.00;0.62;1.70;1.50;;;20.30;28.40;;;;;;2250079;61;20369;-61
2020/12/03 01:44:41;0.00;0.00;0.62;0.00;0.00;0.62;1.97;1.60;;;20.30;28.40;;;;;;2249688;61;20362;-60
2020/12/03 01:47:32;0.00;0.00;0.62;0.00;0.00;0.62;2.27;1.90;;;20.20;28.40;;;;;;2250192;61;20373;-60
2020/12/03 01:50:17;0.00;0.00;0.62;0.00;0.00;0.62;2.03;1.83;;;20.30;28.40;;;;;;2249989;61;20428;-61
2020/12/03 01:53:02;0.00;0.00;0.62;0.00;0.00;0.62;2.17;1.70;;;20.30;28.40;;;;;;2249709;61;20581;-61
2020/12/03 01:55:49;0.00;0.00;0.62;0.00;0.00;0.62;1.67;1.37;;;20.30;28.50;;;;;;2249975;61;20388;-61
2020/12/03 01:58:40;0.00;0.00;0.62;0.00;0.00;0.62;1.90;1.70;;;20.30;28.40;;;;;;2249497;61;20373;-61
2020/12/03 02:01:25;0.00;0.00;0.62;0.00;0.00;0.62;2.00;1.80;;;20.30;28.50;;;;;;2249942;61;20401;-60
2020/12/03 02:04:09;0.00;0.00;0.62;0.00;0.00;0.62;2.00;1.70;;;20.30;28.40;;;;;;2249973;61;20405;-61
2020/12/03 02:10:35;0.00;0.00;0.62;0.00;0.00;0.62;2.13;1.63;;;20.30;28.40;;;;;;2250037;61;20369;-61
2020/12/03 02:13:21;0.00;0.00;0.62;0.00;0.00;0.62;2.13;1.93;;;20.30;28.40;;;;;;2249917;61;20413;-61
2020/12/03 02:16:05;0.00;0.00;0.62;0.00;0.00;0.62;2.23;1.70;;;20.30;29.00;;;;;;2249818;61;20401;-61
2020/12/03 02:18:50;0.00;0.00;0.62;0.00;0.00;0.62;1.60;1.50;;;20.30;28.40;;;;;;2250008;61;20405;-61
2020/12/03 02:21:35;0.00;0.00;0.62;0.00;0.00;0.62;1.83;1.67;;;20.30;28.40;;;;;;2249761;61;20365;-61
2020/12/03 02:24:21;0.00;0.00;0.62;0.00;0.00;0.62;1.77;1.50;;;20.30;28.50;;;;;;2249853;61;20449;-61
2020/12/03 02:27:08;0.00;0.00;0.62;0.00;0.00;0.62;1.97;1.43;;;20.30;28.50;;;;;;2249943;61;20381;-61
2020/12/03 02:29:52;0.00;0.00;0.62;0.00;0.00;0.62;1.70;1.60;;;20.30;28.50;;;;;;2249742;61;20361;-61
2020/12/03 02:32:37;0.00;0.00;0.62;0.00;0.00;0.62;1.70;1.50;;;20.30;28.50;;;;;;2250046;61;20364;-61
2020/12/03 02:35:22;0.00;0.00;0.62;0.00;0.00;0.62;2.07;1.87;;;20.30;28.50;;;;;;2249945;61;20385;-61
2020/12/03 02:38:07;0.00;0.00;0.62;0.00;0.00;0.62;1.83;1.60;;;20.30;28.40;;;;;;2249790;61;20470;-61
2020/12/03 02:40:52;0.00;0.00;0.62;0.00;0.00;0.62;1.50;1.40;;;20.30;28.40;;;;;;2249935;61;20372;-60
2020/12/03 02:43:37;0.00;0.00;0.62;0.00;0.00;0.62;1.47;1.23;;;20.30;28.40;;;;;;2249625;61;20369;-61
2020/12/03 02:46:21;0.00;0.00;0.62;0.00;0.00;0.62;2.20;2.00;;;20.30;28.40;;;;;;2249946;61;20384;-61
2020/12/03 02:49:07;0.00;0.00;0.62;0.00;0.00;0.62;1.83;1.60;;;20.30;28.40;;;;;;2249902;61;20366;-61
2020/12/03 02:51:52;0.00;0.00;0.62;0.00;0.00;0.62;1.77;1.67;;;20.30;28.40;;;;;;2249736;61;20368;-60
2020/12/03 02:54:39;0.00;0.00;0.62;0.00;0.00;0.62;2.10;1.90;;;20.30;28.40;;;;;;2249820;61;20396;-61
2020/12/03 02:57:24;0.00;0.00;0.62;0.00;0.00;0.62;1.80;1.67;;;20.30;28.40;;;;;;2249946;61;20853;-61
2020/12/03 03:00:09;0.00;0.00;0.62;0.00;0.00;0.62;2.00;1.80;;;20.30;28.40;;;;;;2249726;61;20393;-61
2020/12/03 03:02:54;0.00;0.00;0.62;0.00;0.00;0.62;2.13;1.70;;;20.30;28.40;;;;;;2249789;61;20789;-61
2020/12/03 03:05:38;0.00;0.00;0.62;0.00;0.00;0.62;1.93;1.73;;;20.30;28.40;;;;;;2249666;61;20417;-61
2020/12/03 03:08:23;0.00;0.00;0.62;0.00;0.00;0.62;1.90;1.70;;;20.30;28.90;;;;;;2249885;61;20365;-63
2020/12/03 03:11:09;0.00;0.00;0.62;0.00;0.00;0.62;2.17;2.03;;;20.30;28.50;;;;;;2249910;61;20391;-63
2020/12/03 03:13:54;0.00;0.00;0.62;0.00;0.00;0.62;2.60;2.07;;;20.30;29.00;;;;;;2249592;61;20361;-63
2020/12/03 03:16:39;0.00;0.00;0.62;0.00;0.00;0.62;2.00;1.80;;;20.30;28.40;;;;;;2249772;61;20397;-63
2020/12/03 03:19:24;0.00;0.00;0.62;0.00;0.00;0.62;3.20;2.27;;;20.30;28.40;;;;;;2249877;61;20769;-63
2020/12/03 03:22:08;0.00;0.00;0.62;0.00;0.00;0.62;2.77;1.93;;;20.30;28.40;;;;;;2249647;61;20364;-63
2020/12/03 03:24:53;0.00;0.00;0.62;0.00;0.00;0.62;4.00;3.63;;;20.30;28.40;;;;;;2249977;61;20545;-64
2020/12/03 03:27:38;0.00;0.00;0.62;0.00;0.00;0.62;3.43;3.10;;;20.30;28.20;;;;;;2249876;61;20672;-64
2020/12/03 03:30:24;0.00;0.00;0.62;0.00;0.00;0.62;3.80;3.30;;;20.30;27.90;;;;;;2249788;61;20373;-64
2020/12/03 03:33:09;0.00;0.00;0.62;0.00;0.00;0.62;4.07;3.43;;;20.30;27.90;;;;;;2249756;61;20380;-64
2020/12/03 03:35:53;0.00;0.00;0.62;0.00;0.00;0.62;3.73;3.37;;;20.30;27.90;;;;;;2249518;61;20425;-64
2020/12/03 03:38:38;0.00;0.00;0.62;0.00;0.00;0.62;4.13;3.60;;;20.20;27.80;;;;;;2249814;61;20384;-64
2020/12/03 03:41:23;0.00;0.00;0.62;0.00;0.00;0.62;5.07;4.13;;;20.20;28.30;;;;;;2249843;61;20376;-64
2020/12/03 03:44:09;0.00;0.00;0.62;0.00;0.00;0.62;4.40;3.70;;;20.20;27.80;;;;;;2249469;61;20737;-64
2020/12/03 03:46:53;0.00;0.00;0.62;0.00;0.00;0.62;4.00;3.60;;;20.20;27.70;;;;;;2249835;61;20506;-64
2020/12/03 03:49:38;0.00;0.00;0.62;0.00;0.00;0.62;4.20;3.80;;;20.10;27.70;;;;;;2249743;61;20365;-64
2020/12/03 03:52:23;0.00;0.00;0.62;0.00;0.00;0.62;4.30;3.90;;;20.10;27.70;;;;;;2249650;61;20365;-64
2020/12/03 03:55:07;0.00;0.00;0.62;0.00;0.00;0.62;4.27;3.87;;;20.10;27.60;;;;;;2249789;61;20364;-64
2020/12/03 03:57:52;0.00;0.00;0.62;0.00;0.00;0.62;5.73;3.83;;;20.10;27.60;;;;;;2249586;61;20361;-64
2020/12/03 04:00:46;0.00;0.00;0.62;0.00;0.00;0.62;4.43;4.03;;;20.10;27.60;;;;;;2249683;61;20401;-64
2020/12/03 04:03:30;0.00;0.00;0.62;0.00;0.00;0.62;4.93;4.43;;;20.10;27.60;;;;;;2249708;61;20372;-64
2020/12/03 04:06:15;0.00;0.00;0.62;0.00;0.00;0.62;4.47;4.07;;;20.00;27.40;;;;;;2249448;61;20381;-64
2020/12/03 04:09:00;0.00;0.00;0.62;0.00;0.00;0.62;5.47;4.97;;;20.00;27.40;;;;;;2249798;61;20420;-64
2020/12/03 04:11:44;0.00;0.00;0.62;0.00;0.00;0.62;6.17;4.83;;;20.00;27.30;;;;;;2249756;61;20365;-64
2020/12/03 04:14:29;0.00;0.00;0.62;0.00;0.00;0.62;6.67;5.93;;;19.90;27.30;;;;;;2249382;61;20357;-64
2020/12/03 04:17:14;0.00;0.00;0.62;0.00;0.00;0.62;6.00;5.23;;;19.90;27.00;;;;;;2249723;61;20401;-64
2020/12/03 04:19:59;0.00;0.00;0.62;0.00;0.00;0.62;5.17;4.67;;;19.90;26.90;;;;;;2249442;61;20713;-64
2020/12/03 04:22:44;0.00;0.00;0.62;0.00;0.00;0.62;7.13;4.93;;;19.90;27.00;;;;;;2249707;61;20365;-64
2020/12/03 04:25:29;0.00;0.00;0.62;0.00;0.00;0.62;6.10;5.10;;;19.80;27.00;;;;;;2249299;61;20369;-64
2020/12/03 04:28:14;0.00;0.00;0.62;0.00;0.00;0.62;5.90;5.07;;;19.80;27.00;;;;;;2249394;61;20396;-64
2020/12/03 04:30:59;0.00;0.00;0.62;0.00;0.00;0.62;5.43;4.93;;;19.80;27.10;;;;;;2249686;61;20572;-64
2020/12/03 04:33:44;0.00;0.00;0.62;0.00;0.00;0.62;5.87;4.67;;;19.80;27.00;;;;;;2249594;61;20365;-65
2020/12/03 04:36:29;0.00;0.00;0.62;0.00;0.00;0.62;6.63;5.80;;;19.70;27.00;;;;;;2249381;61;20470;-64
2020/12/03 04:39:14;0.00;0.00;0.62;0.00;0.00;0.62;6.90;5.10;;;19.70;26.90;;;;;;2249726;61;20416;-64
2020/12/03 04:41:59;0.00;0.00;0.62;0.00;0.00;0.62;5.90;5.00;;;19.70;27.30;;;;;;2249274;61;20392;-65
2020/12/03 04:44:45;0.00;0.00;0.62;0.00;0.00;0.62;5.57;5.00;;;19.60;26.60;;;;;;2249534;61;20366;-64
2020/12/03 04:47:48;0.00;0.00;0.62;0.00;0.00;0.62;4.93;4.43;;;19.60;26.70;;;;;;2249683;61;20460;-64
2020/12/03 04:50:46;0.00;0.00;0.62;0.00;0.00;0.62;6.73;5.87;;;19.60;26.80;;;;;;2250002;61;20591;-64
2020/12/03 04:53:47;0.00;0.00;0.62;0.00;0.00;0.62;4.87;4.37;;;19.50;26.80;;;;;;2250286;61;20369;-64
2020/12/03 04:56:41;0.00;0.00;0.62;0.00;0.00;0.62;5.60;4.70;;;19.50;26.70;;;;;;2250098;61;20413;-64
2020/12/03 04:59:47;0.00;0.00;0.62;0.00;0.00;0.62;6.23;5.10;;;19.50;26.60;;;;;;2250377;61;20365;-64
2020/12/03 05:03:15;0.00;0.00;0.62;0.00;0.00;0.62;6.23;5.63;;;19.40;26.50;;;;;;2250266;61;20898;-64
2020/12/03 05:06:26;0.00;0.00;0.62;0.00;0.00;0.62;7.47;6.77;;;19.40;26.40;;;;;;2250057;61;20388;-64
2020/12/03 05:09:19;0.00;0.00;0.62;0.00;0.00;0.62;7.10;6.40;;;19.30;26.20;;;;;;2250265;61;20462;-64
2020/12/03 05:12:13;0.00;0.00;0.62;0.00;0.00;0.62;5.40;4.90;;;19.30;26.10;;;;;;2250148;61;20437;-64
2020/12/03 05:15:07;0.00;0.00;0.62;0.00;0.00;0.62;5.83;5.23;;;19.30;26.20;;;;;;2250181;61;20357;-64
2020/12/03 05:18:16;0.00;0.00;0.62;0.00;0.00;0.62;5.50;4.77;;;19.20;26.20;;;;;;2250162;61;20606;-64
2020/12/03 05:21:03;0.00;0.00;0.62;0.00;0.00;0.62;6.77;6.07;;;19.20;26.20;;;;;;2249984;61;20361;-64
2020/12/03 05:23:49;0.00;0.00;0.62;0.00;0.00;0.62;6.77;5.63;;;19.20;26.00;;;;;;2250121;61;20709;-64
2020/12/03 05:26:34;0.00;0.00;0.62;0.00;0.00;0.62;7.47;6.63;;;19.10;26.00;;;;;;2249901;61;20389;-64
2020/12/03 05:29:21;0.00;0.00;0.62;0.00;0.00;0.62;7.00;5.83;;;19.10;26.50;;;;;;2250237;61;20361;-64
2020/12/03 05:32:06;0.00;0.00;0.62;0.00;0.00;0.62;7.40;6.17;;;19.00;25.90;;;;;;2250228;61;20752;-64
2020/12/03 05:34:51;0.00;0.00;0.62;0.00;0.00;0.62;7.17;6.47;;;19.00;25.90;;;;;;2249879;61;20631;-64
2020/12/03 05:37:38;0.00;0.00;0.62;0.00;0.00;0.62;9.90;8.20;;;19.00;26.00;;;;;;2250166;61;20501;-64
2020/12/03 05:40:25;0.00;0.00;0.62;0.00;0.00;0.62;6.83;6.13;;;18.90;25.70;;;;;;2250170;61;20361;-64
2020/12/03 05:43:10;0.00;0.00;0.62;0.00;0.00;0.62;6.90;6.30;;;18.90;25.80;;;;;;2249878;61;20374;-64
2020/12/03 05:45:56;0.00;0.00;0.62;0.00;0.00;0.62;6.70;6.00;;;18.80;25.80;;;;;;2250097;61;20417;-64
2020/12/03 05:48:52;0.00;0.00;0.62;0.00;0.00;0.62;6.93;6.20;;;18.80;25.80;;;;;;2249840;61;20461;-64
2020/12/03 05:51:37;0.00;0.00;0.62;0.00;0.00;0.62;7.13;5.93;;;18.80;25.80;;;;;;2250187;61;20444;-64
2020/12/03 05:54:22;0.00;0.00;0.62;0.00;0.00;0.62;7.70;6.27;;;18.70;25.80;;;;;;2250010;61;20371;-64
2020/12/03 05:57:22;0.00;0.00;0.62;0.00;0.00;0.62;7.23;6.53;;;18.70;26.00;;;;;;2249800;61;20614;-63
2020/12/03 06:00:20;0.00;0.00;0.62;0.00;0.00;0.62;7.03;5.70;;;18.70;26.00;;;;;;2249940;61;20372;-64
2020/12/03 06:03:35;0.00;0.00;0.62;0.00;0.00;0.62;6.10;5.40;;;18.70;26.10;;;;;;2250184;61;20408;-64
2020/12/03 06:07:38;0.00;0.00;0.62;0.00;0.00;0.62;8.67;7.10;;;18.60;26.10;;;;;;2250081;61;20380;-64
2020/12/03 06:10:36;0.00;0.00;0.62;0.00;0.00;0.62;7.50;6.20;;;18.60;25.90;;;;;;2250089;61;20434;-64
2020/12/03 06:13:55;0.00;0.00;0.62;0.00;0.00;0.62;7.83;6.10;;;18.60;26.00;;;;;;2249917;61;20356;-64
2020/12/03 06:16:45;0.00;0.00;0.62;0.00;0.00;0.62;7.43;5.87;;;18.60;26.00;;;;;;2247301;61;20400;-64
2020/12/03 06:19:49;0.00;0.00;0.62;0.00;0.00;0.62;6.50;5.40;;;18.60;26.00;;;;;;2249789;61;20420;-64
2020/12/03 06:22:53;0.00;0.00;0.62;0.00;0.00;0.62;6.27;5.63;;;18.50;26.00;;;;;;2249967;61;20364;-64
2020/12/03 06:25:47;0.00;0.00;0.62;0.00;0.00;0.62;7.20;6.30;;;18.50;26.10;;;;;;2249762;61;20365;-64
2020/12/03 06:29:09;0.00;0.00;0.62;0.00;0.00;0.62;6.77;5.47;;;18.50;26.00;;;;;;2250011;61;20364;-64
2020/12/03 06:32:44;0.00;0.00;0.62;0.00;0.00;0.62;7.10;6.30;;;18.50;26.00;;;;;;2250000;61;20365;-64
2020/12/03 06:35:41;0.00;0.00;0.62;0.00;0.00;0.62;6.60;5.90;;;18.50;26.10;;;;;;2249947;61;20409;-64
2020/12/03 06:38:35;0.00;0.00;0.62;0.00;0.00;0.62;6.33;5.53;;;18.40;26.00;;;;;;2249563;61;20361;-64
2020/12/03 06:41:34;0.00;0.00;0.62;0.00;0.00;0.62;5.10;4.60;;;18.40;26.20;;;;;;2249718;61;20401;-64
2020/12/03 06:44:27;0.00;0.00;0.62;0.00;0.00;0.62;5.77;5.00;;;18.40;26.20;;;;;;2249859;61;20760;-64
2020/12/03 06:48:05;0.00;0.00;0.62;0.00;0.00;0.62;6.30;5.60;;;18.40;26.20;;;;;;2250055;61;20760;-64
2020/12/03 06:51:25;0.00;0.00;0.62;0.00;0.00;0.62;5.40;4.90;;;18.40;26.20;;;;;;2249862;61;20438;-64
2020/12/03 06:54:55;0.00;0.00;0.62;0.00;0.00;0.62;5.73;5.13;;;18.40;26.30;;;;;;2249887;61;20369;-64
2020/12/03 06:58:25;0.00;0.00;0.62;0.00;0.00;0.62;6.53;5.60;;;18.40;26.30;;;;;;2249843;61;20400;-64
2020/12/03 07:01:51;0.00;0.00;0.62;0.00;0.00;0.62;5.87;5.17;;;18.40;26.20;;;;;;2249841;61;20578;-64
2020/12/03 07:05:28;0.00;0.00;0.62;0.00;0.00;0.62;6.10;5.23;;;18.40;26.10;;;;;;2249609;61;20361;-64
2020/12/03 07:09:13;0.00;0.00;0.62;0.00;0.00;0.62;5.83;5.23;;;18.40;26.20;;;;;;2249932;61;20361;-64
2020/12/03 07:13:10;0.00;0.00;0.62;0.00;0.00;0.62;6.90;5.90;;;18.30;26.60;;;;;;2249340;61;20377;-64
2020/12/03 07:16:19;0.00;0.00;0.62;0.00;0.00;0.62;7.67;6.23;;;18.30;26.00;;;;;;2237621;61;20444;-65
2020/12/03 07:20:06;0.00;0.00;0.62;0.00;0.00;0.62;8.67;7.03;;;18.30;26.70;;;;;;2249482;61;20458;-64
2020/12/03 07:22:57;0.00;0.00;0.62;0.00;0.00;0.62;11.10;7.30;;;18.30;26.10;;;;;;2246596;61;20444;-64
2020/12/03 07:25:44;0.00;0.00;0.62;0.00;0.00;0.62;9.00;6.90;;;18.20;26.00;;;;;;2249489;61;21840;-64
2020/12/03 07:28:35;0.00;0.00;0.62;0.00;0.00;0.62;8.37;6.77;;;18.20;26.10;;;;;;2250133;61;20602;-64
2020/12/03 07:31:30;0.00;0.00;0.62;0.00;0.00;0.62;6.93;6.20;;;18.20;26.10;;;;;;2249813;61;20385;-64
2020/12/03 07:34:27;0.00;0.00;0.62;0.00;0.00;0.62;7.40;5.80;;;18.20;26.10;;;;;;2249540;61;20578;-64
2020/12/03 07:37:26;0.00;0.00;0.62;0.00;0.00;0.62;9.53;7.17;;;18.20;26.10;;;;;;2249746;61;20401;-64
2020/12/03 07:40:14;0.00;0.00;0.62;0.00;0.00;0.62;8.40;6.63;;;18.20;26.10;;;;;;2249562;61;20505;-64
2020/12/03 07:43:02;0.00;0.00;0.62;0.00;0.00;0.62;9.73;7.73;;;18.20;26.00;;;;;;2249685;61;20361;-64
2020/12/03 07:45:49;0.00;0.00;0.62;0.00;0.00;0.62;9.57;8.10;;;18.20;26.00;;;;;;2249810;61;20377;-65
2020/12/03 07:48:45;0.00;0.00;0.62;0.00;0.00;0.62;9.53;8.53;;;18.10;25.80;;;;;;2249460;61;20368;-64
2020/12/03 07:51:30;0.00;0.00;0.62;0.00;0.00;0.62;8.27;7.47;;;18.20;25.80;;;;;;2249805;61;20361;-64
2020/12/03 07:54:23;0.00;0.00;0.62;0.00;0.00;0.62;8.90;7.90;;;18.10;25.80;;;;;;2249404;61;20396;-64
2020/12/03 07:57:40;0.00;0.00;0.62;0.00;0.00;0.62;10.20;8.20;;;18.10;25.80;;;;;;2249724;61;20416;-64
2020/12/03 08:00:56;0.00;0.00;0.62;0.00;0.00;0.62;9.00;7.70;;;18.10;25.90;;;;;;2249348;61;20626;-64
2020/12/03 08:03:48;0.00;0.00;0.62;0.00;0.00;0.62;9.40;8.17;;;18.00;25.70;;;;;;2249503;61;20364;-64
2020/12/03 08:06:38;0.00;0.00;0.62;0.00;0.00;0.62;8.93;8.03;;;18.00;25.80;;;;;;2249073;61;20425;-64
2020/12/03 08:09:24;0.00;0.00;0.62;0.00;0.00;0.62;12.50;9.00;;;17.90;25.80;;;;;;2249067;61;21006;-64
2020/12/03 08:12:11;0.00;0.00;0.62;0.00;0.00;0.62;9.70;7.90;;;17.90;25.80;;;;;;2249626;61;20389;-64
2020/12/03 08:14:57;0.00;0.00;0.62;0.00;0.00;0.62;11.57;9.23;;;17.90;25.90;;;;;;2249507;61;20400;-64
2020/12/03 08:17:47;0.00;0.00;0.62;0.00;0.00;0.62;11.30;7.53;;;17.80;25.80;;;;;;2249353;61;20641;-64
2020/12/03 08:20:44;0.00;0.00;0.62;0.00;0.00;0.62;10.70;8.30;;;17.90;25.90;;;;;;2249712;61;20397;-64
2020/12/03 08:23:29;0.00;0.00;0.62;0.00;0.00;0.62;8.93;7.40;;;17.80;25.90;;;;;;2246759;61;20485;-64
2020/12/03 08:26:23;0.00;0.00;0.62;0.00;0.00;0.62;8.97;8.03;;;17.80;26.00;;;;;;2250333;61;20381;-64
2020/12/03 08:29:22;0.00;0.00;0.62;0.00;0.00;0.62;8.60;7.80;;;17.80;26.00;;;;;;2250284;61;20369;-64
2020/12/03 08:32:07;0.00;0.00;0.62;0.00;0.00;0.62;10.07;7.80;;;17.80;26.40;;;;;;2250258;61;20361;-64
2020/12/03 08:34:52;0.00;0.00;0.62;0.00;0.00;0.62;8.37;7.47;;;17.80;25.90;;;;;;2250219;61;20575;-64
2020/12/03 08:37:37;0.00;0.00;0.62;0.00;0.00;0.62;10.90;8.57;;;17.80;25.90;;;;;;2250198;61;20400;-64
2020/12/03 08:40:26;0.00;0.00;0.62;0.00;0.00;0.62;8.63;7.47;;;17.80;26.00;;;;;;2250125;61;20441;-64
2020/12/03 08:43:12;0.00;0.00;0.62;0.00;0.00;0.62;9.60;8.70;;;17.70;26.00;;;;;;2250181;61;20724;-64
2020/12/03 08:46:04;0.00;0.00;0.62;0.00;0.00;0.62;8.87;7.97;;;17.70;26.00;;;;;;2250230;61;20760;-64
2020/12/03 08:48:49;0.00;0.00;0.62;0.00;0.00;0.62;10.00;7.87;;;17.70;26.00;;;;;;2250319;61;20409;-64
2020/12/03 08:51:37;0.00;0.00;0.62;0.00;0.00;0.62;9.80;8.40;;;17.70;26.00;;;;;;2250277;61;20396;-63
2020/12/03 08:54:25;0.00;0.00;0.62;0.00;0.00;0.62;7.97;6.93;;;17.70;26.00;;;;;;2249962;61;20369;-64
2020/12/03 08:57:15;0.00;0.00;0.62;0.00;0.00;0.62;9.93;7.63;;;17.70;26.10;;;;;;2250134;61;20609;-64
2020/12/03 09:00:01;0.00;0.00;0.62;0.00;0.00;0.62;10.30;7.93;;;17.70;26.10;;;;;;2250268;61;20367;-65
2020/12/03 09:02:47;0.00;0.00;0.62;0.00;0.00;0.62;8.17;7.10;;;17.60;26.00;;;;;;2250009;61;20385;-64
2020/12/03 09:05:33;0.00;0.00;0.62;0.00;0.00;0.62;7.90;7.10;;;17.70;26.20;;;;;;2250216;61;20384;-64
2020/12/03 09:08:20;0.00;0.00;0.62;0.00;0.00;0.62;9.77;6.57;;;17.60;26.10;;;;;;2250007;61;20469;-64
2020/12/03 09:11:06;0.00;0.00;0.62;0.00;0.00;0.62;9.37;7.70;;;17.60;26.10;;;;;;2250198;61;20373;-64
2020/12/03 09:13:55;0.00;0.00;0.62;0.00;0.00;0.62;10.07;8.50;;;17.60;26.60;;;;;;2250091;61;20377;-64
2020/12/03 09:16:45;0.00;0.00;0.62;0.00;0.00;0.62;7.97;6.93;;;17.60;25.90;;;;;;2249925;61;20475;-65
2020/12/03 09:19:30;0.00;0.00;0.62;0.00;0.00;0.62;6.93;6.13;;;17.60;25.90;;;;;;2250175;61;20372;-66
2020/12/03 09:22:16;0.00;0.00;0.62;0.00;0.00;0.62;8.40;7.10;;;17.60;26.00;;;;;;2250236;61;20441;-65
2020/12/03 09:25:06;0.00;0.00;0.62;0.00;0.00;0.62;8.53;7.63;;;17.60;26.10;;;;;;2249974;61;20369;-64
2020/12/03 09:27:52;0.00;0.00;0.62;0.00;0.00;0.62;9.17;7.70;;;17.60;26.10;;;;;;2250236;61;20369;-65
2020/12/03 09:30:43;0.00;0.00;0.62;0.00;0.00;0.62;10.20;8.43;;;17.60;26.10;;;;;;2249953;61;20585;-64
2020/12/03 09:33:28;0.00;0.00;0.62;0.00;0.00;0.62;11.10;8.40;;;17.50;26.00;;;;;;2250074;61;20590;-63
2020/12/03 09:36:13;0.00;0.00;0.62;0.00;0.00;0.62;9.93;8.30;;;17.50;26.00;;;;;;2250117;61;20416;-62
2020/12/03 09:38:58;0.00;0.00;0.62;0.00;0.00;0.62;9.30;8.30;;;17.50;26.00;;;;;;2249941;61;20449;-63
2020/12/03 09:41:43;0.00;0.00;0.62;0.00;0.00;0.62;10.43;9.17;;;17.50;26.00;;;;;;2250282;61;20365;-62
2020/12/03 09:44:32;0.00;0.00;0.62;0.00;0.00;0.62;8.20;7.07;;;17.50;26.00;;;;;;2250080;61;20578;-63
2020/12/03 09:47:20;0.00;0.00;0.62;0.00;0.00;0.62;8.57;7.30;;;17.50;26.10;;;;;;2249856;61;20425;-62
2020/12/03 09:50:05;0.00;0.00;0.62;0.00;0.00;0.62;7.97;6.90;;;17.40;26.10;;;;;;2250101;61;20396;-62
2020/12/03 09:52:52;0.00;0.00;0.62;0.00;0.00;0.62;8.10;6.23;;;17.50;26.20;;;;;;2249801;61;20619;-63
2020/12/03 09:55:37;0.00;0.00;0.62;0.00;0.00;0.62;7.83;6.30;;;17.50;26.30;;;;;;2250045;61;20368;-63
2020/12/03 09:58:22;0.00;0.00;0.62;0.00;0.00;0.62;15.33;7.00;;;17.50;26.30;;;;;;2250146;61;20353;-63
2020/12/03 10:01:08;0.00;0.00;0.62;0.00;0.00;0.62;8.60;5.63;;;17.50;26.40;;;;;;2249769;61;20596;-63
2020/12/03 10:04:26;0.00;0.00;0.62;0.00;0.00;0.62;11.63;6.30;;;17.50;26.40;;;;;;2250031;61;20400;-63
2020/12/03 10:07:23;0.00;0.00;0.62;0.00;0.00;0.62;7.77;6.00;;;17.50;26.50;;;;;;2250058;61;20413;-62
2020/12/03 10:10:17;0.00;0.00;0.62;0.00;0.00;0.62;8.63;7.33;;;17.50;26.50;;;;;;2250022;61;20357;-62
2020/12/03 10:13:38;0.00;0.00;0.62;0.00;0.00;0.62;10.03;7.83;;;17.50;26.80;;;;;;2249883;61;20369;-62
2020/12/03 10:16:28;0.00;0.00;0.62;0.00;0.00;0.62;8.17;6.80;;;17.50;26.90;;;;;;2249762;61;20393;-63
2020/12/03 10:19:17;0.00;0.00;0.62;0.00;0.00;0.62;9.07;6.83;;;17.60;27.20;;;;;;2249843;61;20381;-63
2020/12/03 10:22:04;0.00;0.00;0.62;0.00;0.00;0.62;9.10;7.97;;;17.60;27.10;;;;;;2249926;61;20373;-65
2020/12/03 10:25:08;0.00;0.00;0.62;0.00;0.00;0.62;8.63;7.50;;;17.50;27.10;;;;;;2249861;61;20365;-66
2020/12/03 10:28:00;0.00;0.00;0.62;0.00;0.00;0.62;10.27;8.40;;;17.50;27.30;;;;;;2250096;61;20822;-66
2020/12/03 10:30:46;0.00;0.00;0.62;0.00;0.00;0.62;8.03;5.90;;;17.50;27.30;;;;;;2249723;61;20368;-63
2020/12/03 10:33:35;0.00;0.00;0.62;0.00;0.00;0.62;8.10;6.83;;;17.50;27.20;;;;;;2249939;61;20361;-65
2020/12/03 10:36:32;0.00;0.00;0.62;0.00;0.00;0.62;6.80;6.20;;;17.50;27.20;;;;;;2249719;61;20408;-62
2020/12/03 10:39:19;0.00;0.00;0.62;0.00;0.00;0.62;6.47;5.50;;;17.60;27.30;;;;;;2249770;61;20393;-63
2020/12/03 10:42:09;0.00;0.00;0.62;0.00;0.00;0.62;6.97;6.27;;;17.60;27.30;;;;;;2250031;61;20404;-62
2020/12/03 10:45:03;0.00;0.00;0.62;0.00;0.00;0.62;7.63;6.03;;;17.60;27.30;;;;;;2249578;61;20753;-64
2020/12/03 10:47:53;0.00;0.00;0.62;0.00;0.00;0.62;6.17;5.57;;;17.60;27.30;;;;;;2249907;61;20386;-65
2020/12/03 10:50:55;0.00;0.00;0.62;0.00;0.00;0.62;6.97;5.80;;;17.60;27.20;;;;;;2249927;61;20361;-65
2020/12/03 10:53:47;0.00;0.00;0.62;0.00;0.00;0.62;6.67;5.50;;;17.70;27.40;;;;;;2249612;61;20720;-66
2020/12/03 10:56:36;0.00;0.00;0.62;0.00;0.00;0.62;7.73;6.80;;;17.70;27.80;;;;;;2249954;61;20765;-67
2020/12/03 10:59:33;0.00;0.00;0.62;0.00;0.00;0.62;7.90;6.80;;;17.70;27.20;;;;;;2249627;61;20401;-64
2020/12/03 11:02:26;0.00;0.00;0.62;0.00;0.00;0.62;7.63;6.00;;;17.70;27.10;;;;;;2249872;61;20388;-63
2020/12/03 11:05:12;0.00;0.00;0.62;0.00;0.00;0.62;5.80;5.30;;;17.60;26.80;;;;;;2249721;61;20685;-62
2020/12/03 11:07:58;0.00;0.00;0.62;0.00;0.00;0.62;6.90;5.33;;;17.70;26.90;;;;;;2249545;61;20369;-64
2020/12/03 11:10:45;0.00;0.00;0.62;0.00;0.00;0.62;6.43;5.00;;;17.70;27.10;;;;;;2249875;61;20369;-66
2020/12/03 11:13:29;0.00;0.00;0.62;0.00;0.00;0.62;5.50;4.70;;;17.70;27.30;;;;;;2249725;61;20381;-65
2020/12/03 11:16:21;0.00;0.00;0.62;0.00;0.00;0.62;4.17;3.77;;;17.70;27.40;;;;;;2249739;61;20661;-64
2020/12/03 11:19:10;0.00;0.00;0.62;0.00;0.00;0.62;4.80;4.33;;;17.70;27.40;;;;;;2249448;61;20369;-63
2020/12/03 11:22:05;0.00;0.00;0.62;0.00;0.00;0.62;5.00;3.80;;;17.70;27.40;;;;;;2249588;61;20393;-64